Time;durP1;ratioP1;P1;durP2;ratioP2;P2;SDS_P1;SDS_P2;PMS_P1;PMS_P2;Temp;Humidity;BMP_temperature;BMP_pressure;BME280_temperature;BME280_humidity;BME280_pressure;Samples;Min_cycle;Max_cycle;Signal;HPM_P1;HPM_P2
2022/12/23 00:00:34;;;;;;;54.97;5.95;;;;;;;0.01;0.00;59042.03;5017035;28;20293;-54
2022/12/23 00:02:59;;;;;;;51.17;6.15;;;;;;;0.01;0.00;59042.03;5017743;28;20055;-54
2022/12/23 00:05:25;;;;;;;51.53;6.32;;;;;;;0.01;0.00;59042.03;5017115;28;20659;-53
2022/12/23 00:07:50;;;;;;;57.28;7.10;;;;;;;0.01;0.00;59042.03;5017087;28;20087;-54
2022/12/23 00:10:16;;;;;;;55.03;6.53;;;;;;;0.01;0.00;59042.03;5015600;28;20647;-55
2022/12/23 00:15:25;;;;;;;34.80;4.75;;;;;;;0.01;0.00;59042.03;5016645;28;20048;-53
2022/12/23 00:17:50;;;;;;;55.08;7.05;;;;;;;0.01;0.00;59042.03;5016601;28;20037;-53
2022/12/23 00:20:15;;;;;;;46.17;5.95;;;;;;;0.01;0.00;59042.03;5016729;28;20029;-53
2022/12/23 00:25:40;;;;;;;49.05;6.00;;;;;;;0.01;0.00;59042.03;5015933;28;20048;-53
2022/12/23 00:28:09;;;;;;;44.08;5.60;;;;;;;0.01;0.00;59042.03;5018673;28;20722;-53
2022/12/23 00:30:34;;;;;;;51.83;6.32;;;;;;;0.01;0.00;59042.03;5018625;28;20057;-53
2022/12/23 00:33:00;;;;;;;45.05;5.40;;;;;;;0.01;0.00;59042.03;5020191;28;20072;-54
2022/12/23 00:35:29;;;;;;;49.17;6.25;;;;;;;0.01;0.00;59042.03;5019109;28;20041;-55
2022/12/23 00:37:54;;;;;;;49.75;5.90;;;;;;;0.01;0.00;59042.03;5018702;28;20734;-53
2022/12/23 00:43:03;;;;;;;54.55;6.47;;;;;;;0.01;0.00;59042.03;5020521;28;20064;-52
2022/12/23 00:45:29;;;;;;;51.65;6.80;;;;;;;0.01;0.00;59042.03;5019055;28;20061;-53
2022/12/23 00:50:38;;;;;;;51.83;6.38;;;;;;;0.01;0.00;59042.03;5018737;28;20128;-54
2022/12/23 00:53:05;;;;;;;46.35;6.22;;;;;;;0.01;0.00;59042.03;5019707;28;20096;-52
2022/12/23 00:55:31;;;;;;;40.28;5.53;;;;;;;0.01;0.00;59042.03;5019282;28;20029;-54
2022/12/23 00:57:57;;;;;;;38.42;5.22;;;;;;;0.01;0.00;59042.03;5019760;28;20033;-54
2022/12/23 01:05:35;;;;;;;43.80;5.88;;;;;;;0.01;0.00;59042.03;5018864;28;20594;-53
2022/12/23 01:05:58;;;;;;;45.58;6.32;;;;;;;0.01;0.00;59042.03;5019294;28;20545;-53
2022/12/23 01:08:24;;;;;;;43.75;5.93;;;;;;;0.01;0.00;59042.03;5001387;28;20991;-57
2022/12/23 01:10:49;;;;;;;48.50;6.57;;;;;;;0.01;0.00;59042.03;5018328;28;20550;-55
2022/12/23 01:13:14;;;;;;;41.35;5.70;;;;;;;0.01;0.00;59042.03;5018932;28;20029;-53
2022/12/23 01:15:40;;;;;;;43.75;5.82;;;;;;;0.01;0.00;59042.03;5018427;28;20038;-53
2022/12/23 01:18:05;;;;;;;35.75;5.53;;;;;;;0.01;0.00;59042.03;5019054;28;20029;-53
2022/12/23 01:20:30;;;;;;;42.55;6.03;;;;;;;0.01;0.00;59042.03;5018443;28;20533;-53
2022/12/23 01:22:56;;;;;;;42.58;5.57;;;;;;;0.01;0.00;59042.03;5019525;28;20459;-53
2022/12/23 01:25:21;;;;;;;38.30;5.60;;;;;;;0.01;0.00;59042.03;5018517;28;20178;-53
2022/12/23 01:27:47;;;;;;;39.78;5.10;;;;;;;0.01;0.00;59042.03;5019208;28;20052;-54
2022/12/23 01:30:12;;;;;;;43.53;5.85;;;;;;;0.01;0.00;59042.03;5018387;28;20036;-53
2022/12/23 01:32:37;;;;;;;50.80;6.45;;;;;;;0.01;0.00;59042.03;5019023;28;20116;-52
2022/12/23 01:35:03;;;;;;;47.20;6.20;;;;;;;0.01;0.00;59042.03;5017980;28;20546;-52
2022/12/23 01:37:28;;;;;;;43.85;5.47;;;;;;;0.01;0.00;59042.03;5019236;28;20116;-56
2022/12/23 01:39:54;;;;;;;46.05;6.20;;;;;;;0.01;0.00;59042.03;5018223;28;20080;-53
2022/12/23 01:45:20;;;;;;;41.75;6.15;;;;;;;0.01;0.00;59042.03;5018982;28;20040;-54
2022/12/23 01:47:48;;;;;;;54.63;6.63;;;;;;;0.01;0.00;59042.03;5018661;28;20140;-54
2022/12/23 01:50:36;;;;;;;53.28;6.90;;;;;;;0.01;0.00;59042.03;5016211;28;20379;-54
2022/12/23 01:53:15;;;;;;;56.97;7.07;;;;;;;0.01;0.00;59042.03;5018634;28;20427;-53
2022/12/23 01:55:44;;;;;;;59.90;7.60;;;;;;;0.01;0.00;59042.03;5018271;28;20533;-54
2022/12/23 01:58:14;;;;;;;39.50;6.05;;;;;;;0.01;0.00;59042.03;5018768;28;20120;-53
2022/12/23 02:03:42;;;;;;;35.92;5.30;;;;;;;0.01;0.00;59042.03;5018301;28;20048;-54
2022/12/23 02:09:16;;;;;;;38.97;5.65;;;;;;;0.01;0.00;59042.03;5018704;28;20120;-52
2022/12/23 02:11:44;;;;;;;45.10;5.95;;;;;;;0.01;0.00;59042.03;5015901;28;20048;-53
2022/12/23 02:17:19;;;;;;;36.65;5.30;;;;;;;0.01;0.00;59042.03;5018049;28;20088;-53
2022/12/23 02:20:08;;;;;;;57.15;6.25;;;;;;;0.01;0.00;59042.03;5017783;28;20846;-54
2022/12/23 02:23:03;;;;;;;37.17;5.60;;;;;;;0.01;0.00;59042.03;5017220;28;20151;-52
2022/12/23 02:25:47;;;;;;;38.40;5.50;;;;;;;0.01;0.00;59042.03;5017711;28;20163;-53
2022/12/23 02:28:34;;;;;;;34.67;5.63;;;;;;;0.01;0.00;59042.03;5017689;28;20022;-55
2022/12/23 02:31:11;;;;;;;37.25;5.65;;;;;;;0.01;0.00;59042.03;5017025;28;20191;-53
2022/12/23 02:34:08;;;;;;;34.75;5.43;;;;;;;0.01;0.00;59042.03;5017939;28;20025;-55
2022/12/23 02:36:48;;;;;;;33.58;5.45;;;;;;;0.01;0.00;59042.03;5017704;28;20701;-55
2022/12/23 02:39:38;;;;;;;35.88;5.50;;;;;;;0.01;0.00;59042.03;5017839;28;20021;-53
2022/12/23 02:42:15;;;;;;;40.90;6.25;;;;;;;0.01;0.00;59042.03;5017074;28;20048;-55
2022/12/23 02:44:49;;;;;;;43.38;6.28;;;;;;;0.01;0.00;59042.03;5017664;28;20124;-53
2022/12/23 02:47:45;;;;;;;41.28;5.97;;;;;;;0.01;0.00;59042.03;5017256;28;20474;-54
2022/12/23 02:50:17;;;;;;;41.67;6.32;;;;;;;0.01;0.00;59042.03;5013005;28;20044;-52
2022/12/23 02:52:45;;;;;;;36.13;5.88;;;;;;;0.01;0.00;59042.03;5016746;28;20101;-52
2022/12/23 02:55:20;;;;;;;47.90;6.60;;;;;;;0.01;0.00;59042.03;5016807;28;20053;-54
2022/12/23 02:57:48;;;;;;;44.97;6.10;;;;;;;0.01;0.00;59042.03;5018192;28;20030;-54
2022/12/23 03:00:15;;;;;;;49.55;7.15;;;;;;;0.01;0.00;59042.03;5016974;28;20022;-54
2022/12/23 03:02:42;;;;;;;42.38;6.15;;;;;;;0.01;0.00;59042.03;4999933;28;20376;-54
2022/12/23 03:05:39;;;;;;;51.10;7.22;;;;;;;0.01;0.00;59042.03;5017052;28;20430;-54
2022/12/23 03:08:10;;;;;;;41.78;6.97;;;;;;;0.01;0.00;59042.03;5017931;28;20108;-53
2022/12/23 03:11:05;;;;;;;37.22;5.93;;;;;;;0.01;0.00;59042.03;5016957;28;20450;-53
2022/12/23 03:13:55;;;;;;;42.97;6.20;;;;;;;0.01;0.00;59042.03;5011934;28;20033;-57
2022/12/23 03:16:46;;;;;;;44.58;7.15;;;;;;;0.01;0.00;59042.03;5016850;28;20126;-53
2022/12/23 03:19:14;;;;;;;45.20;6.82;;;;;;;0.01;0.00;59042.03;5017436;28;20078;-55
2022/12/23 03:22:22;;;;;;;44.65;6.70;;;;;;;0.01;0.00;59042.03;5015975;28;20096;-53
2022/12/23 03:24:48;;;;;;;45.85;6.82;;;;;;;0.01;0.00;59042.03;5016527;28;20116;-56
2022/12/23 03:27:32;;;;;;;56.35;7.38;;;;;;;0.01;0.00;59042.03;5016609;28;20133;-54
2022/12/23 03:30:09;;;;;;;42.97;6.80;;;;;;;0.01;0.00;59042.03;5016924;28;20558;-57
2022/12/23 03:32:50;;;;;;;52.50;7.18;;;;;;;0.01;0.00;59042.03;5016827;28;20041;-54
2022/12/23 03:35:20;;;;;;;34.40;5.75;;;;;;;0.01;0.00;59042.03;5016943;28;20033;-53
2022/12/23 03:37:49;;;;;;;41.50;6.68;;;;;;;0.01;0.00;59042.03;5017093;28;20021;-54
2022/12/23 03:40:22;;;;;;;28.45;5.68;;;;;;;0.01;0.00;59042.03;5016730;28;20275;-54
2022/12/23 03:42:54;;;;;;;36.20;5.90;;;;;;;0.01;0.00;59042.03;5017267;28;20022;-53
2022/12/23 03:45:30;;;;;;;33.72;5.95;;;;;;;0.01;0.00;59042.03;5016779;28;20060;-58
2022/12/23 03:48:03;;;;;;;36.33;6.38;;;;;;;0.01;0.00;59042.03;5016569;28;20025;-55
2022/12/23 03:50:30;;;;;;;46.03;7.22;;;;;;;0.01;0.00;59042.03;5016195;28;20567;-54
2022/12/23 03:53:09;;;;;;;40.20;7.13;;;;;;;0.01;0.00;59042.03;5016956;28;20482;-55
2022/12/23 03:55:42;;;;;;;43.92;7.28;;;;;;;0.01;0.00;59042.03;5016492;28;20084;-56
2022/12/23 03:58:32;;;;;;;31.58;6.18;;;;;;;0.01;0.00;59042.03;5017487;28;20021;-53
2022/12/23 04:01:30;;;;;;;44.03;7.25;;;;;;;0.01;0.00;59042.03;5015780;28;20064;-55
2022/12/23 04:04:05;;;;;;;36.67;6.60;;;;;;;0.01;0.00;59042.03;4982311;28;20707;-56
2022/12/23 04:06:38;;;;;;;35.95;6.07;;;;;;;0.01;0.00;59042.03;5020269;28;20037;-55
2022/12/23 04:09:06;;;;;;;39.40;6.43;;;;;;;0.01;0.00;59042.03;5020593;28;20155;-55
2022/12/23 04:11:33;;;;;;;30.05;6.05;;;;;;;0.01;0.00;59042.03;5020081;28;20044;-54
2022/12/23 04:13:59;;;;;;;47.88;7.20;;;;;;;0.01;0.00;59042.03;5020043;28;20048;-53
2022/12/23 04:16:25;;;;;;;33.72;5.82;;;;;;;0.01;0.00;59042.03;5019990;28;20041;-53
2022/12/23 04:18:50;;;;;;;31.10;5.60;;;;;;;0.01;0.00;59042.03;5020713;28;20129;-54
2022/12/23 04:21:16;;;;;;;36.05;6.70;;;;;;;0.01;0.00;59042.03;5019573;28;20557;-53
2022/12/23 04:23:41;;;;;;;33.80;6.15;;;;;;;0.01;0.00;59042.03;5020689;28;20092;-55
2022/12/23 04:26:06;;;;;;;36.58;6.22;;;;;;;0.01;0.00;59042.03;5019107;28;20096;-54
2022/12/23 04:28:32;;;;;;;31.33;6.03;;;;;;;0.01;0.00;59042.03;5020582;28;20050;-54
2022/12/23 04:30:57;;;;;;;34.75;5.57;;;;;;;0.01;0.00;59042.03;5019206;28;20052;-55
2022/12/23 04:33:22;;;;;;;28.85;5.45;;;;;;;0.01;0.00;59042.03;5020006;28;20025;-53
2022/12/23 04:35:48;;;;;;;26.85;5.00;;;;;;;0.01;0.00;59042.03;5019728;28;20227;-53
2022/12/23 04:38:13;;;;;;;43.75;6.20;;;;;;;0.01;0.00;59042.03;5020221;28;20063;-54
2022/12/23 04:40:38;;;;;;;29.02;4.95;;;;;;;0.01;0.00;59042.03;5019239;28;20765;-53
2022/12/23 04:43:04;;;;;;;35.17;5.75;;;;;;;0.01;0.00;59042.03;5020247;28;20267;-53
2022/12/23 04:45:30;;;;;;;39.97;6.03;;;;;;;0.01;0.00;59042.03;5018910;28;20033;-56
2022/12/23 04:47:56;;;;;;;28.70;5.50;;;;;;;0.01;0.00;59042.03;5020119;28;20447;-55
2022/12/23 04:50:21;;;;;;;40.50;6.88;;;;;;;0.01;0.00;59042.03;5018942;28;20040;-54
2022/12/23 04:52:47;;;;;;;35.35;5.75;;;;;;;0.01;0.00;59042.03;5020079;28;20435;-53
2022/12/23 04:55:12;;;;;;;31.92;5.97;;;;;;;0.01;0.00;59042.03;5019624;28;20033;-53
2022/12/23 04:57:38;;;;;;;40.38;6.40;;;;;;;0.01;0.00;59042.03;5019275;28;20032;-53
2022/12/23 05:00:04;;;;;;;30.88;5.93;;;;;;;0.01;0.00;59042.03;5019661;28;20061;-54
2022/12/23 05:02:30;;;;;;;37.40;5.90;;;;;;;0.01;0.00;59042.03;5018613;28;20125;-55
2022/12/23 05:04:55;;;;;;;32.70;6.13;;;;;;;0.01;0.00;59042.03;5019846;28;20021;-54
2022/12/23 05:07:20;;;;;;;38.33;6.22;;;;;;;0.01;0.00;59042.03;5019030;28;20033;-54
2022/12/23 05:09:46;;;;;;;46.80;6.75;;;;;;;0.01;0.00;59042.03;5019245;28;20035;-53
2022/12/23 05:12:11;;;;;;;35.42;5.70;;;;;;;0.01;0.00;59042.03;5018777;28;20116;-53
2022/12/23 05:14:36;;;;;;;34.58;6.45;;;;;;;0.01;0.00;59042.03;5018454;28;20056;-54
2022/12/23 05:17:02;;;;;;;35.95;5.82;;;;;;;0.01;0.00;59042.03;5018733;28;20572;-54
2022/12/23 05:19:27;;;;;;;35.53;5.95;;;;;;;0.01;0.00;59042.03;5019250;28;20029;-55
2022/12/23 05:21:52;;;;;;;39.80;6.60;;;;;;;0.01;0.00;59042.03;5018287;28;20045;-54
2022/12/23 05:24:18;;;;;;;33.42;6.43;;;;;;;0.01;0.00;59042.03;5019534;28;20029;-57
2022/12/23 05:26:46;;;;;;;31.67;5.75;;;;;;;0.01;0.00;59042.03;5018232;28;20029;-54
2022/12/23 05:29:12;;;;;;;31.85;5.60;;;;;;;0.01;0.00;59042.03;5019072;28;20111;-53
2022/12/23 05:31:37;;;;;;;30.40;5.18;;;;;;;0.01;0.00;59042.03;5018122;28;20145;-53
2022/12/23 05:34:02;;;;;;;32.53;5.95;;;;;;;0.01;0.00;59042.03;5019137;28;20644;-53
2022/12/23 05:36:28;;;;;;;29.85;5.85;;;;;;;0.01;0.00;59042.03;5017057;28;20045;-53
2022/12/23 05:38:53;;;;;;;38.80;6.82;;;;;;;0.01;0.00;59042.03;5018335;28;20067;-54
2022/12/23 05:41:19;;;;;;;27.17;5.47;;;;;;;0.01;0.00;59042.03;5018050;28;20577;-54
2022/12/23 05:43:44;;;;;;;35.25;6.47;;;;;;;0.01;0.00;59042.03;5018910;28;20086;-53
2022/12/23 05:46:09;;;;;;;39.42;6.68;;;;;;;0.01;0.00;59042.03;5018003;28;20048;-54
2022/12/23 05:48:35;;;;;;;31.45;5.53;;;;;;;0.01;0.00;59042.03;5018691;28;20025;-54
2022/12/23 05:51:00;;;;;;;31.45;6.78;;;;;;;0.01;0.00;59042.03;5017905;28;20073;-55
2022/12/23 05:53:25;;;;;;;33.10;6.80;;;;;;;0.01;0.00;59042.03;5018569;28;20036;-54
2022/12/23 05:55:51;;;;;;;38.90;6.80;;;;;;;0.01;0.00;59042.03;5018337;28;20041;-57
2022/12/23 05:58:16;;;;;;;44.25;7.78;;;;;;;0.01;0.00;59042.03;5018441;28;20021;-55
2022/12/23 06:00:42;;;;;;;38.63;7.95;;;;;;;0.01;0.00;59042.03;5018005;28;20033;-54
2022/12/23 06:03:07;;;;;;;37.05;8.43;;;;;;;0.01;0.00;59042.03;5018316;28;20056;-54
2022/12/23 06:05:35;;;;;;;35.65;7.03;;;;;;;0.01;0.00;59042.03;5018118;28;20052;-54
2022/12/23 06:08:00;;;;;;;43.53;8.00;;;;;;;0.01;0.00;59042.03;5018701;28;20038;-57
2022/12/23 06:10:26;;;;;;;40.83;7.82;;;;;;;0.01;0.00;59042.03;5017133;28;20022;-55
2022/12/23 06:12:52;;;;;;;39.30;7.65;;;;;;;0.01;0.00;59042.03;5018399;28;20053;-56
2022/12/23 06:15:18;;;;;;;46.25;8.70;;;;;;;0.01;0.00;59042.03;5017458;28;20022;-54
2022/12/23 06:17:43;;;;;;;34.10;7.43;;;;;;;0.01;0.00;59042.03;5018468;28;20022;-53
2022/12/23 06:20:09;;;;;;;30.25;6.90;;;;;;;0.01;0.00;59042.03;5017914;28;20041;-53
2022/12/23 06:22:35;;;;;;;40.78;7.55;;;;;;;0.01;0.00;59042.03;5017769;28;20041;-54
2022/12/23 06:25:00;;;;;;;33.58;6.10;;;;;;;0.01;0.00;59042.03;5018715;28;20025;-53
2022/12/23 06:27:26;;;;;;;41.10;7.07;;;;;;;0.01;0.00;59042.03;5017264;28;20088;-54
2022/12/23 06:29:51;;;;;;;40.38;6.95;;;;;;;0.01;0.00;59042.03;5017913;28;20045;-54
2022/12/23 06:32:17;;;;;;;30.92;6.03;;;;;;;0.01;0.00;59042.03;5017280;28;20037;-53
2022/12/23 06:34:42;;;;;;;37.22;6.18;;;;;;;0.01;0.00;59042.03;5017115;28;20426;-53
2022/12/23 06:37:07;;;;;;;38.22;6.72;;;;;;;0.01;0.00;59042.03;5017683;28;20418;-53
2022/12/23 06:39:33;;;;;;;36.22;7.90;;;;;;;0.01;0.00;59042.03;5017807;28;20552;-53
2022/12/23 06:41:58;;;;;;;30.80;7.47;;;;;;;0.01;0.00;59042.03;5016986;28;20041;-55
2022/12/23 06:44:23;;;;;;;24.10;5.68;;;;;;;0.01;0.00;59042.03;5017687;28;20025;-52
2022/12/23 06:46:49;;;;;;;41.05;8.45;;;;;;;0.01;0.00;59042.03;5016881;28;20042;-52
2022/12/23 06:49:14;;;;;;;38.58;8.63;;;;;;;0.01;0.00;59042.03;5018039;28;20404;-54
2022/12/23 06:51:40;;;;;;;29.67;6.35;;;;;;;0.01;0.00;59042.03;5017434;28;20061;-54
2022/12/23 06:54:05;;;;;;;30.75;7.25;;;;;;;0.01;0.00;59042.03;5017618;28;20018;-53
2022/12/23 06:56:32;;;;;;;30.60;6.93;;;;;;;0.01;0.00;59042.03;5017495;28;20037;-52
2022/12/23 06:58:57;;;;;;;39.67;7.60;;;;;;;0.01;0.00;59042.03;5017679;28;20029;-54
2022/12/23 07:01:23;;;;;;;28.75;6.30;;;;;;;0.01;0.00;59042.03;5016983;28;20065;-53
2022/12/23 07:03:48;;;;;;;40.25;7.00;;;;;;;0.01;0.00;59042.03;5017804;28;20063;-53
2022/12/23 07:06:14;;;;;;;32.85;6.60;;;;;;;0.01;0.00;59042.03;5016870;28;20041;-55
2022/12/23 07:08:39;;;;;;;32.30;6.47;;;;;;;0.01;0.00;59042.03;5017921;28;20112;-52
2022/12/23 07:11:04;;;;;;;32.50;6.70;;;;;;;0.01;0.00;59042.03;5016858;28;20071;-53
2022/12/23 07:13:31;;;;;;;32.40;7.22;;;;;;;0.01;0.00;59042.03;5018002;28;20033;-52
2022/12/23 07:15:58;;;;;;;34.33;6.75;;;;;;;0.01;0.00;59042.03;5017000;28;20124;-54
2022/12/23 07:18:24;;;;;;;35.85;6.30;;;;;;;0.01;0.00;59042.03;5017939;28;20022;-53
2022/12/23 07:20:51;;;;;;;34.85;6.88;;;;;;;0.01;0.00;59042.03;5016643;28;20034;-53
2022/12/23 07:23:16;;;;;;;35.55;7.22;;;;;;;0.01;0.00;59042.03;5017562;28;20044;-55
2022/12/23 07:25:42;;;;;;;29.25;5.50;;;;;;;0.01;0.00;59042.03;5017424;28;20040;-53
2022/12/23 07:28:07;;;;;;;36.20;7.05;;;;;;;0.01;0.00;59042.03;5017287;28;20667;-53
2022/12/23 07:30:34;;;;;;;32.72;6.38;;;;;;;0.01;0.00;59042.03;5016179;28;20038;-53
2022/12/23 07:32:59;;;;;;;39.28;7.35;;;;;;;0.01;0.00;59042.03;5017729;28;20021;-52
2022/12/23 07:35:24;;;;;;;44.20;9.05;;;;;;;0.01;0.00;59042.03;5016311;28;20037;-52
2022/12/23 07:37:52;;;;;;;28.63;6.55;;;;;;;0.01;0.00;59042.03;5017859;28;20255;-53
2022/12/23 07:40:17;;;;;;;34.88;7.03;;;;;;;0.01;0.00;59042.03;5020422;28;20021;-52
2022/12/23 07:42:42;;;;;;;30.85;6.55;;;;;;;0.01;0.00;59042.03;5021086;28;20398;-53
2022/12/23 07:45:08;;;;;;;30.13;6.07;;;;;;;0.01;0.00;59042.03;5020585;28;20024;-53
2022/12/23 07:47:34;;;;;;;34.17;7.10;;;;;;;0.01;0.00;59042.03;5020176;28;20021;-54
2022/12/23 07:49:59;;;;;;;41.75;7.43;;;;;;;0.01;0.00;59042.03;5020650;28;20033;-53
2022/12/23 07:52:25;;;;;;;31.33;5.90;;;;;;;0.01;0.00;59042.03;5019798;28;20088;-53
2022/12/23 07:54:50;;;;;;;33.85;7.35;;;;;;;0.01;0.00;59042.03;5020657;28;20034;-53
2022/12/23 07:57:15;;;;;;;31.00;7.15;;;;;;;0.01;0.00;59042.03;5020501;28;20053;-53
2022/12/23 07:59:41;;;;;;;40.50;7.80;;;;;;;0.01;0.00;59042.03;5020486;28;20076;-54
2022/12/23 08:02:07;;;;;;;35.55;7.70;;;;;;;0.01;0.00;59042.03;5019927;28;20120;-55
2022/12/23 08:04:33;;;;;;;35.28;7.50;;;;;;;0.01;0.00;59042.03;5020896;28;20087;-53
2022/12/23 08:06:58;;;;;;;34.58;6.85;;;;;;;0.01;0.00;59042.03;5019995;28;20045;-52
2022/12/23 08:09:23;;;;;;;29.73;5.80;;;;;;;0.01;0.00;59042.03;5021300;28;20033;-56
2022/12/23 08:11:49;;;;;;;33.13;6.13;;;;;;;0.01;0.00;59042.03;5019669;28;20041;-52
2022/12/23 08:14:14;;;;;;;27.60;5.28;;;;;;;0.01;0.00;59042.03;5020432;28;20040;-55
2022/12/23 08:16:39;;;;;;;28.05;5.82;;;;;;;0.01;0.00;59042.03;5020143;28;20045;-54
2022/12/23 08:19:05;;;;;;;34.97;5.90;;;;;;;0.01;0.00;59042.03;5020174;28;20017;-58
2022/12/23 08:21:30;;;;;;;30.52;6.10;;;;;;;0.01;0.00;59042.03;5019430;28;20060;-53
2022/12/23 08:23:55;;;;;;;35.38;6.78;;;;;;;0.01;0.00;59042.03;5020164;28;20398;-54
2022/12/23 08:26:23;;;;;;;32.22;5.68;;;;;;;0.01;0.00;59042.03;5019933;28;20614;-53
2022/12/23 08:28:52;;;;;;;24.20;5.30;;;;;;;0.01;0.00;59042.03;5020021;28;20025;-55
2022/12/23 08:31:17;;;;;;;25.95;5.25;;;;;;;0.01;0.00;59042.03;5019410;28;20056;-53
2022/12/23 08:33:45;;;;;;;29.02;5.60;;;;;;;0.01;0.00;59042.03;5020517;28;20025;-54
2022/12/23 08:36:16;;;;;;;35.28;5.85;;;;;;;0.01;0.00;59042.03;5019226;28;20823;-54
2022/12/23 08:38:42;;;;;;;21.20;4.78;;;;;;;0.01;0.00;59042.03;5020108;28;20034;-53
2022/12/23 08:41:10;;;;;;;29.88;5.25;;;;;;;0.01;0.00;59042.03;5018955;28;20542;-53
2022/12/23 08:43:37;;;;;;;32.55;5.88;;;;;;;0.01;0.00;59042.03;5019703;28;20515;-55
2022/12/23 08:46:03;;;;;;;29.33;6.55;;;;;;;0.01;0.00;59042.03;5019308;28;20152;-54
2022/12/23 08:48:28;;;;;;;36.63;7.75;;;;;;;0.01;0.00;59042.03;5019774;28;20092;-53
2022/12/23 08:50:54;;;;;;;31.45;7.40;;;;;;;0.01;0.00;59042.03;5017598;28;20474;-56
2022/12/23 08:53:19;;;;;;;37.83;7.20;;;;;;;0.01;0.00;59042.03;5019850;28;20422;-52
2022/12/23 08:55:46;;;;;;;31.27;5.65;;;;;;;0.01;0.00;59042.03;5019340;28;20042;-53
2022/12/23 08:58:13;;;;;;;29.08;5.47;;;;;;;0.01;0.00;59042.03;5020024;28;20040;-53
2022/12/23 09:00:39;;;;;;;24.90;4.68;;;;;;;0.01;0.00;59042.03;5018889;28;20343;-56
2022/12/23 09:03:04;;;;;;;26.63;5.07;;;;;;;0.01;0.00;59042.03;5019737;28;20126;-53
2022/12/23 09:05:30;;;;;;;39.40;6.50;;;;;;;0.01;0.00;59042.03;5018423;28;20037;-55
2022/12/23 09:07:56;;;;;;;28.92;5.25;;;;;;;0.01;0.00;59042.03;5019783;28;20470;-54
2022/12/23 09:10:22;;;;;;;31.15;5.13;;;;;;;0.01;0.00;59042.03;5018682;28;20026;-53
2022/12/23 09:12:48;;;;;;;20.73;4.30;;;;;;;0.01;0.00;59042.03;5019469;28;20083;-53
2022/12/23 09:15:13;;;;;;;25.02;4.63;;;;;;;0.01;0.00;59042.03;5018796;28;20530;-54
2022/12/23 09:17:38;;;;;;;30.80;5.38;;;;;;;0.01;0.00;59042.03;5019447;28;20022;-53
2022/12/23 09:20:04;;;;;;;27.45;5.25;;;;;;;0.01;0.00;59042.03;5019163;28;20402;-54
2022/12/23 09:22:33;;;;;;;30.83;5.22;;;;;;;0.01;0.00;59042.03;5018574;28;20037;-53
2022/12/23 09:24:58;;;;;;;28.23;4.95;;;;;;;0.01;0.00;59042.03;5016601;28;20025;-53
2022/12/23 09:27:24;;;;;;;24.98;4.85;;;;;;;0.01;0.00;59042.03;5018657;28;20091;-53
2022/12/23 09:29:49;;;;;;;55.47;7.15;;;;;;;0.01;0.00;59042.03;5010795;28;20021;-55
2022/12/23 09:32:14;;;;;;;33.58;5.75;;;;;;;0.01;0.00;59042.03;5011700;28;20087;-55
2022/12/23 09:34:40;;;;;;;31.30;4.95;;;;;;;0.01;0.00;59042.03;5013203;28;20564;-56
2022/12/23 09:37:05;;;;;;;33.85;5.78;;;;;;;0.01;0.00;59042.03;5015413;28;20067;-56
2022/12/23 09:39:31;;;;;;;27.70;4.93;;;;;;;0.01;0.00;59042.03;5015887;28;20104;-54
2022/12/23 09:42:15;;;;;;;35.20;6.22;;;;;;;0.01;0.00;59042.03;5015049;28;20179;-54
2022/12/23 09:44:48;;;;;;;38.55;6.07;;;;;;;0.01;0.00;59042.03;5014212;28;20021;-55
2022/12/23 09:47:18;;;;;;;24.65;4.97;;;;;;;0.01;0.00;59042.03;5013815;28;20041;-56
2022/12/23 09:49:59;;;;;;;42.88;7.35;;;;;;;0.01;0.00;59042.03;5013765;28;20025;-54
2022/12/23 09:52:52;;;;;;;29.33;5.15;;;;;;;0.01;0.00;59042.03;5015047;28;20084;-55
2022/12/23 09:55:20;;;;;;;37.35;6.53;;;;;;;0.01;0.00;59042.03;5012433;28;20038;-53
2022/12/23 09:58:00;;;;;;;38.40;6.45;;;;;;;0.01;0.00;59042.03;5013450;28;20029;-54
2022/12/23 10:00:30;;;;;;;26.63;5.45;;;;;;;0.01;0.00;59042.03;5013164;28;20025;-54
2022/12/23 10:03:39;;;;;;;33.72;6.57;;;;;;;0.01;0.00;59042.03;5014665;28;20037;-54
2022/12/23 10:06:18;;;;;;;35.65;6.65;;;;;;;0.01;0.00;59042.03;4969868;28;20696;-53
2022/12/23 10:08:47;;;;;;;35.13;6.78;;;;;;;0.01;0.00;59042.03;4972962;28;20054;-55
2022/12/23 10:11:20;;;;;;;42.05;7.47;;;;;;;0.01;0.00;59042.03;4997610;28;20045;-53
2022/12/23 10:14:00;;;;;;;43.97;7.78;;;;;;;0.01;0.00;59042.03;5015368;28;20107;-54
2022/12/23 10:16:37;;;;;;;38.63;7.10;;;;;;;0.01;0.00;59042.03;5013004;28;20115;-59
2022/12/23 10:19:05;;;;;;;39.97;7.22;;;;;;;0.01;0.00;59042.03;5015525;28;20702;-57
2022/12/23 10:22:05;;;;;;;46.80;8.00;;;;;;;0.01;0.00;59042.03;5014499;28;20049;-57
2022/12/23 10:24:39;;;;;;;46.58;8.02;;;;;;;0.01;0.00;59042.03;4941654;28;20043;-57
2022/12/23 10:27:40;;;;;;;35.80;6.90;;;;;;;0.01;0.00;59042.03;5013533;28;20317;-55
2022/12/23 10:30:09;;;;;;;34.50;6.18;;;;;;;0.01;0.00;59042.03;5013984;28;20132;-56
2022/12/23 10:32:56;;;;;;;41.13;7.30;;;;;;;0.01;0.00;59042.03;5013616;28;20209;-55
2022/12/23 10:35:40;;;;;;;41.72;7.30;;;;;;;0.01;0.00;59042.03;5014522;28;20036;-54
2022/12/23 10:38:30;;;;;;;47.38;8.00;;;;;;;0.01;0.00;59042.03;5014732;28;20451;-58
2022/12/23 10:41:10;;;;;;;31.55;6.38;;;;;;;0.01;0.00;59042.03;5014714;28;20053;-55
2022/12/23 10:43:50;;;;;;;63.25;9.73;;;;;;;0.01;0.00;59042.03;5014241;28;20021;-55
2022/12/23 10:46:49;;;;;;;32.65;6.75;;;;;;;0.01;0.00;59042.03;5014458;28;20852;-55
2022/12/23 10:49:50;;;;;;;37.70;7.63;;;;;;;0.01;0.00;59042.03;5015808;28;20033;-55
2022/12/23 10:52:20;;;;;;;49.28;8.75;;;;;;;0.01;0.00;59042.03;5014323;28;20045;-58
2022/12/23 10:54:47;;;;;;;59.72;9.73;;;;;;;0.01;0.00;59042.03;5014921;28;20458;-55
2022/12/23 10:57:14;;;;;;;47.15;8.88;;;;;;;0.01;0.00;59042.03;5014478;28;20030;-56
2022/12/23 10:59:40;;;;;;;57.25;10.15;;;;;;;0.01;0.00;59042.03;5013665;28;20028;-54
2022/12/23 11:02:27;;;;;;;48.25;9.60;;;;;;;0.01;0.00;59042.03;5013027;28;20243;-54
2022/12/23 11:04:52;;;;;;;46.22;8.80;;;;;;;0.01;0.00;59042.03;5013354;28;20375;-53
2022/12/23 11:07:22;;;;;;;37.08;8.00;;;;;;;0.01;0.00;59042.03;5015018;28;20553;-55
2022/12/23 11:10:01;;;;;;;51.05;9.63;;;;;;;0.01;0.00;59042.03;5012843;28;20594;-58
2022/12/23 11:12:40;;;;;;;51.50;10.02;;;;;;;0.01;0.00;59042.03;5014129;28;20569;-54
2022/12/23 11:15:24;;;;;;;50.72;9.48;;;;;;;0.01;0.00;59042.03;5016883;28;20029;-55
2022/12/23 11:18:17;;;;;;;42.42;8.88;;;;;;;0.01;0.00;59042.03;5017368;28;20036;-56
2022/12/23 11:20:45;;;;;;;49.70;10.00;;;;;;;0.01;0.00;59042.03;5014669;28;20116;-56
2022/12/23 11:23:30;;;;;;;62.05;11.65;;;;;;;0.01;0.00;59042.03;5018552;28;20133;-59
2022/12/23 11:26:03;;;;;;;46.55;10.40;;;;;;;0.01;0.00;59042.03;5017917;28;20045;-54
2022/12/23 11:28:30;;;;;;;53.10;10.55;;;;;;;0.01;0.00;59042.03;5018525;28;20458;-54
2022/12/23 11:31:10;;;;;;;47.83;9.95;;;;;;;0.01;0.00;59042.03;5016264;28;20099;-54
2022/12/23 11:33:54;;;;;;;35.47;8.15;;;;;;;0.01;0.00;59042.03;5018620;28;20095;-56
2022/12/23 11:36:22;;;;;;;59.92;10.38;;;;;;;0.01;0.00;59042.03;5017183;28;20049;-54
2022/12/23 11:38:52;;;;;;;37.97;7.60;;;;;;;0.01;0.00;59042.03;5018939;28;20162;-55
2022/12/23 11:41:25;;;;;;;47.88;9.18;;;;;;;0.01;0.00;59042.03;5017510;28;20041;-55
2022/12/23 11:44:02;;;;;;;36.42;7.80;;;;;;;0.01;0.00;59042.03;5017483;28;20434;-57
2022/12/23 11:46:33;;;;;;;48.30;8.23;;;;;;;0.01;0.00;59042.03;5015304;28;20030;-57
2022/12/23 11:49:21;;;;;;;41.15;7.97;;;;;;;0.01;0.00;59042.03;5019369;28;20070;-56
2022/12/23 11:52:00;;;;;;;32.88;7.68;;;;;;;0.01;0.00;59042.03;5017420;28;20112;-54
2022/12/23 11:54:28;;;;;;;47.08;8.68;;;;;;;0.01;0.00;59042.03;5017603;28;20103;-55
2022/12/23 11:56:54;;;;;;;44.58;9.57;;;;;;;0.01;0.00;59042.03;5017409;28;20755;-56
2022/12/23 11:59:28;;;;;;;39.85;8.38;;;;;;;0.01;0.00;59042.03;5017651;28;20037;-56
2022/12/23 12:01:57;;;;;;;38.83;7.65;;;;;;;0.01;0.00;59042.03;5015155;28;20776;-56
2022/12/23 12:04:24;;;;;;;35.30;6.90;;;;;;;0.01;0.00;59042.03;5018006;28;20151;-55
2022/12/23 12:06:51;;;;;;;29.50;6.00;;;;;;;0.01;0.00;59042.03;5017273;28;20055;-56
2022/12/23 12:09:18;;;;;;;27.42;6.25;;;;;;;0.01;0.00;59042.03;5017607;28;20533;-55
2022/12/23 12:11:53;;;;;;;35.28;6.72;;;;;;;0.01;0.00;59042.03;5016844;28;20053;-56
2022/12/23 12:14:32;;;;;;;30.88;6.78;;;;;;;0.01;0.00;59042.03;5017086;28;20064;-55
2022/12/23 12:17:22;;;;;;;38.03;7.40;;;;;;;0.01;0.00;59042.03;5015294;28;20091;-57
2022/12/23 12:20:13;;;;;;;47.47;8.25;;;;;;;0.01;0.00;59042.03;5017383;28;20682;-56
2022/12/23 12:23:02;;;;;;;35.03;6.90;;;;;;;0.01;0.00;59042.03;5016906;28;20038;-54